Time;durP1;ratioP1;P1;durP2;ratioP2;P2;SDS_P1;SDS_P2;PMS_P1;PMS_P2;Temp;Humidity;BMP_temperature;BMP_pressure;BME280_temperature;BME280_humidity;BME280_pressure;Samples;Min_cycle;Max_cycle;Signal;HPM_P1;HPM_P2
2023/01/04 00:05:21;;;;;;;;;;;;;;;;;;5015487;28;6692;-69
2023/01/04 00:07:47;;;;;;;;;;;;;;;;;;4998207;28;8462;-70
2023/01/04 00:10:12;;;;;;;;;;;;;;;;;;5015352;28;6971;-69
2023/01/04 00:13:00;;;;;;;;;;;;;;;;;;5015504;28;7106;-70
2023/01/04 00:15:26;;;;;;;;;;;;;;;;;;5015674;28;7188;-74
2023/01/04 00:21:19;;;;;;;;;;;;;;;;;;5015281;28;7038;-70
2023/01/04 00:26:37;;;;;;;;;;;;;;;;;;5015685;28;6938;-69
2023/01/04 00:29:13;;;;;;;;;;;;;;;;;;5014982;28;8147;-70
2023/01/04 00:31:38;;;;;;;;;;;;;;;;;;5015163;28;7188;-70
2023/01/04 00:37:06;;;;;;;;;;;;;;;;;;5015076;28;6735;-70
2023/01/04 00:39:32;;;;;;;;;;;;;;;;;;5015198;28;7190;-70
2023/01/04 00:42:03;;;;;;;;;;;;;;;;;;4997547;28;8521;-70
2023/01/04 00:44:33;;;;;;;;;;;;;;;;;;5015158;28;7025;-70
2023/01/04 00:47:00;;;;;;;;;;;;;;;;;;5015355;28;7134;-70
2023/01/04 00:49:27;;;;;;;;;;;;;;;;;;5015149;28;7296;-69
2023/01/04 00:51:53;;;;;;;;;;;;;;;;;;5014933;28;7398;-69
2023/01/04 00:54:19;;;;;;;;;;;;;;;;;;5015608;28;6931;-70
2023/01/04 00:56:44;;;;;;;;;;;;;;;;;;5014883;28;7080;-70
2023/01/04 00:59:14;;;;;;;;;;;;;;;;;;5010910;28;7467;-70
2023/01/04 01:01:40;;;;;;;;;;;;;;;;;;5014883;28;7173;-70
2023/01/04 01:04:06;;;;;;;;;;;;;;;;;;4998185;28;8720;-70
2023/01/04 01:06:32;;;;;;;;;;;;;;;;;;5014884;28;7168;-70
2023/01/04 01:15:04;;;;;;;;;;;;;;;;;;5014573;28;6835;-70
2023/01/04 01:17:30;;;;;;;;;;;;;;;;;;5014746;28;7309;-70
2023/01/04 01:22:58;;;;;;;;;;;;;;;;;;5014492;28;6847;-70
2023/01/04 01:25:23;;;;;;;;;;;;;;;;;;5014837;28;7133;-70
2023/01/04 01:27:55;;;;;;;;;;;;;;;;;;5015240;28;7126;-69
2023/01/04 01:30:21;;;;;;;;;;;;;;;;;;5014632;28;7422;-69
2023/01/04 01:39:00;;;;;;;;;;;;;;;;;;5014477;28;6989;-70
2023/01/04 01:41:27;;;;;;;;;;;;;;;;;;5014448;28;7187;-70
2023/01/04 01:44:00;;;;;;;;;;;;;;;;;;5014535;28;7399;-70
2023/01/04 01:46:35;;;;;;;;;;;;;;;;;;5022034;28;7640;-70
2023/01/04 01:49:35;;;;;;;;;;;;;;;;;;5034268;28;7181;-70
2023/01/04 01:52:11;;;;;;;;;;;;;;;;;;5034786;28;7046;-70
2023/01/04 01:57:40;;;;;;;;;;;;;;;;;;5033813;28;6697;-70
2023/01/04 02:00:08;;;;;;;;;;;;;;;;;;5030940;28;7091;-70
2023/01/04 02:05:37;;;;;;;;;;;;;;;;;;5034299;28;6825;-70
2023/01/04 02:11:07;;;;;;;;;;;;;;;;;;5037548;28;6693;-70
2023/01/04 02:22:30;;;;;;;;;;;;;;;;;;5037356;28;7122;-69
2023/01/04 02:25:45;;;;;;;;;;;;;;;;;;5037352;28;7981;-70
2023/01/04 02:28:26;;;;;;;;;;;;;;;;;;5037317;28;7452;-70
2023/01/04 02:34:02;;;;;;;;;;;;;;;;;;5037050;28;6747;-70
2023/01/04 02:36:36;;;;;;;;;;;;;;;;;;5019614;28;8750;-69
2023/01/04 02:42:17;;;;;;;;;;;;;;;;;;5036947;28;6944;-70
2023/01/04 02:51:08;;;;;;;;;;;;;;;;;;4997646;28;7033;-69
2023/01/04 02:53:37;;;;;;;;;;;;;;;;;;4997758;28;7239;-69
2023/01/04 02:56:34;;;;;;;;;;;;;;;;;;4997426;28;7049;-70
2023/01/04 02:59:02;;;;;;;;;;;;;;;;;;4981810;28;7287;-70
2023/01/04 03:07:23;;;;;;;;;;;;;;;;;;5017063;28;6684;-70
2023/01/04 03:13:08;;;;;;;;;;;;;;;;;;5016544;28;7022;-70
2023/01/04 03:15:38;;;;;;;;;;;;;;;;;;5016633;28;7128;-70
2023/01/04 03:21:09;;;;;;;;;;;;;;;;;;5016177;28;6982;-70
2023/01/04 03:50:52;;;;;;;;;;;;;;;;;;4956207;28;6804;-70
2023/01/04 03:53:19;;;;;;;;;;;;;;;;;;4956296;28;7148;-70
2023/01/04 03:55:47;;;;;;;;;;;;;;;;;;4955552;28;7266;-70
2023/01/04 03:58:14;;;;;;;;;;;;;;;;;;4955670;28;7089;-69
2023/01/04 04:09:35;;;;;;;;;;;;;;;;;;4955785;28;6808;-70
2023/01/04 04:12:00;;;;;;;;;;;;;;;;;;5011369;28;7155;-69
2023/01/04 04:14:26;;;;;;;;;;;;;;;;;;5015410;28;6985;-70
2023/01/04 04:26:03;;;;;;;;;;;;;;;;;;5015240;28;7555;-70
2023/01/04 04:31:31;;;;;;;;;;;;;;;;;;5014911;28;6685;-70
2023/01/04 04:33:58;;;;;;;;;;;;;;;;;;5015259;28;7053;-70
2023/01/04 04:36:23;;;;;;;;;;;;;;;;;;5014885;28;7813;-70
2023/01/04 04:38:49;;;;;;;;;;;;;;;;;;5015217;28;7081;-69
2023/01/04 04:47:09;;;;;;;;;;;;;;;;;;5015007;28;7025;-69
2023/01/04 04:49:35;;;;;;;;;;;;;;;;;;5015164;28;7208;-70
2023/01/04 04:52:03;;;;;;;;;;;;;;;;;;5014863;28;7207;-69
2023/01/04 04:57:22;;;;;;;;;;;;;;;;;;5015575;28;6960;-70
2023/01/04 05:00:12;;;;;;;;;;;;;;;;;;5011677;28;7147;-70
2023/01/04 05:02:37;;;;;;;;;;;;;;;;;;4975848;28;7126;-70
2023/01/04 05:07:53;;;;;;;;;;;;;;;;;;4975992;28;7044;-70
2023/01/04 05:10:19;;;;;;;;;;;;;;;;;;4975887;28;7197;-70
2023/01/04 05:16:22;;;;;;;;;;;;;;;;;;4975576;28;6693;-70
2023/01/04 05:18:47;;;;;;;;;;;;;;;;;;4975769;28;7316;-70
2023/01/04 05:21:13;;;;;;;;;;;;;;;;;;4975844;28;7341;-70
2023/01/04 05:23:39;;;;;;;;;;;;;;;;;;4975784;28;7207;-70
2023/01/04 05:26:05;;;;;;;;;;;;;;;;;;4975743;28;7416;-70
2023/01/04 05:28:47;;;;;;;;;;;;;;;;;;4975741;28;7314;-70
2023/01/04 05:31:13;;;;;;;;;;;;;;;;;;5097544;23;7026;-70
2023/01/04 05:33:39;;;;;;;;;;;;;;;;;;5073202;28;9409;-70
2023/01/04 05:39:07;;;;;;;;;;;;;;;;;;5058813;28;6685;-70
2023/01/04 05:44:17;;;;;;;;;;;;;;;;;;5055456;28;6808;-77
2023/01/04 05:46:42;;;;;;;;;;;;;;;;;;5058489;28;7443;-70
2023/01/04 05:49:08;;;;;;;;;;;;;;;;;;5075740;28;6815;-69
2023/01/04 05:51:33;;;;;;;;;;;;;;;;;;5099134;28;7412;-70
2023/01/04 05:54:11;;;;;;;;;;;;;;;;;;5098357;28;6981;-69
2023/01/04 05:56:37;;;;;;;;;;;;;;;;;;5098305;28;7272;-70
2023/01/04 05:59:03;;;;;;;;;;;;;;;;;;5098328;28;7237;-70
2023/01/04 06:04:24;;;;;;;;;;;;;;;;;;5096302;28;6947;-70
2023/01/04 06:06:50;;;;;;;;;;;;;;;;;;5081407;28;6947;-69
2023/01/04 06:09:15;;;;;;;;;;;;;;;;;;5098186;28;7170;-69
2023/01/04 06:11:41;;;;;;;;;;;;;;;;;;5090108;28;7068;-70
2023/01/04 06:14:06;;;;;;;;;;;;;;;;;;5073046;28;7211;-70
2023/01/04 06:16:32;;;;;;;;;;;;;;;;;;5057246;28;7328;-70
2023/01/04 06:18:58;;;;;;;;;;;;;;;;;;5058221;28;6937;-70
2023/01/04 06:21:43;;;;;;;;;;;;;;;;;;5089089;28;8403;-70
2023/01/04 06:24:09;;;;;;;;;;;;;;;;;;5097736;28;7150;-69
2023/01/04 06:27:10;;;;;;;;;;;;;;;;;;5097790;28;7297;-70
2023/01/04 06:29:35;;;;;;;;;;;;;;;;;;5097602;28;7872;-69
2023/01/04 06:35:04;;;;;;;;;;;;;;;;;;5097331;28;7036;-70
2023/01/04 06:37:30;;;;;;;;;;;;;;;;;;5097410;28;7387;-69
2023/01/04 06:40:14;;;;;;;;;;;;;;;;;;5097596;28;7421;-69
2023/01/04 06:42:45;;;;;;;;;;;;;;;;;;5097317;28;7129;-69
2023/01/04 06:45:11;;;;;;;;;;;;;;;;;;5097507;28;7173;-69
2023/01/04 06:47:37;;;;;;;;;;;;;;;;;;5098154;28;7073;-69
2023/01/04 06:50:03;;;;;;;;;;;;;;;;;;5089361;28;7245;-69
2023/01/04 06:52:56;;;;;;;;;;;;;;;;;;5076837;28;7433;-69
2023/01/04 06:55:21;;;;;;;;;;;;;;;;;;5077751;28;7277;-69
2023/01/04 06:57:47;;;;;;;;;;;;;;;;;;5082334;28;7071;-69
2023/01/04 07:00:12;;;;;;;;;;;;;;;;;;5076925;28;6929;-69
2023/01/04 07:02:38;;;;;;;;;;;;;;;;;;5077365;28;7120;-69
2023/01/04 07:08:02;;;;;;;;;;;;;;;;;;5081335;28;7075;-69
2023/01/04 07:13:31;;;;;;;;;;;;;;;;;;5077650;28;6707;-69
2023/01/04 07:15:57;;;;;;;;;;;;;;;;;;5096822;28;7201;-68
2023/01/04 07:18:24;;;;;;;;;;;;;;;;;;5092447;28;7206;-68
2023/01/04 07:20:49;;;;;;;;;;;;;;;;;;5075135;28;8428;-68
2023/01/04 07:23:15;;;;;;;;;;;;;;;;;;5084631;28;6916;-68
2023/01/04 07:26:10;;;;;;;;;;;;;;;;;;5096674;28;6954;-68
2023/01/04 07:31:20;;;;;;;;;;;;;;;;;;5090894;28;6796;-65
2023/01/04 07:34:08;;;;;;;;;;;;;;;;;;5095096;28;7158;-64
2023/01/04 07:36:33;;;;;;;;;;;;;;;;;;5096112;28;7135;-66
2023/01/04 07:38:59;;;;;;;;;;;;;;;;;;5096385;28;7143;-66
2023/01/04 07:41:24;;;;;;;;;;;;;;;;;;5096287;28;7081;-66
2023/01/04 07:43:50;;;;;;;;;;;;;;;;;;5096164;28;7502;-66
2023/01/04 07:46:23;;;;;;;;;;;;;;;;;;5096198;28;6836;-65
2023/01/04 07:48:49;;;;;;;;;;;;;;;;;;5095887;28;6934;-65
2023/01/04 07:51:38;;;;;;;;;;;;;;;;;;5095972;28;7130;-65
2023/01/04 07:54:03;;;;;;;;;;;;;;;;;;5095700;28;8277;-66
2023/01/04 07:56:29;;;;;;;;;;;;;;;;;;5095592;28;7705;-65
2023/01/04 07:58:56;;;;;;;;;;;;;;;;;;5095986;28;7112;-65
2023/01/04 08:01:29;;;;;;;;;;;;;;;;;;5095847;28;7199;-66
2023/01/04 08:03:54;;;;;;;;;;;;;;;;;;5095755;28;7471;-65
2023/01/04 08:09:23;;;;;;;;;;;;;;;;;;5095603;28;6669;-65
2023/01/04 08:11:49;;;;;;;;;;;;;;;;;;5095264;28;7187;-66
2023/01/04 08:14:25;;;;;;;;;;;;;;;;;;5096360;28;7133;-65
2023/01/04 08:16:51;;;;;;;;;;;;;;;;;;5095229;28;7242;-65
2023/01/04 08:19:19;;;;;;;;;;;;;;;;;;5096512;28;7182;-65
2023/01/04 08:24:47;;;;;;;;;;;;;;;;;;5095403;28;6691;-65
2023/01/04 08:30:16;;;;;;;;;;;;;;;;;;5095619;28;7018;-65
2023/01/04 08:32:41;;;;;;;;;;;;;;;;;;5095232;28;7160;-65
2023/01/04 08:38:05;;;;;;;;;;;;;;;;;;5075969;28;6965;-65
2023/01/04 08:40:31;;;;;;;;;;;;;;;;;;5075096;28;6952;-65
2023/01/04 08:43:02;;;;;;;;;;;;;;;;;;5074903;28;7060;-66
2023/01/04 08:45:29;;;;;;;;;;;;;;;;;;5075015;28;6948;-65
2023/01/04 08:47:54;;;;;;;;;;;;;;;;;;5074936;28;7059;-65
2023/01/04 08:50:20;;;;;;;;;;;;;;;;;;5074615;28;7335;-65
2023/01/04 08:52:59;;;;;;;;;;;;;;;;;;5074736;28;7395;-66
2023/01/04 08:55:24;;;;;;;;;;;;;;;;;;5074780;28;7023;-66
2023/01/04 09:03:55;;;;;;;;;;;;;;;;;;5074561;28;6737;-65
2023/01/04 09:09:28;;;;;;;;;;;;;;;;;;5074473;28;6709;-66
2023/01/04 09:14:25;;;;;;;;;;;;;;;;;;5084437;23;7134;-71
2023/01/04 09:16:58;;;;;;;;;;;;;;;;;;5034574;28;7078;-71
2023/01/04 09:19:24;;;;;;;;;;;;;;;;;;5035491;28;7336;-71
2023/01/04 09:21:52;;;;;;;;;;;;;;;;;;5038656;28;7061;-72
2023/01/04 09:27:20;;;;;;;;;;;;;;;;;;5038456;28;6689;-72
2023/01/04 09:29:54;;;;;;;;;;;;;;;;;;5038467;28;7029;-71
2023/01/04 09:32:20;;;;;;;;;;;;;;;;;;5039259;28;7162;-71
2023/01/04 09:34:46;;;;;;;;;;;;;;;;;;5038192;28;7458;-72
2023/01/04 09:40:21;;;;;;;;;;;;;;;;;;5038137;28;6817;-72
2023/01/04 09:42:49;;;;;;;;;;;;;;;;;;5037848;28;7423;-72
2023/01/04 09:45:19;;;;;;;;;;;;;;;;;;5037911;28;7228;-72
2023/01/04 09:47:45;;;;;;;;;;;;;;;;;;5038174;28;6998;-72
2023/01/04 09:50:29;;;;;;;;;;;;;;;;;;5038443;28;7117;-72
2023/01/04 09:59:13;;;;;;;;;;;;;;;;;;5037864;28;6687;-72
2023/01/04 10:01:49;;;;;;;;;;;;;;;;;;5037508;28;7808;-72
2023/01/04 10:04:48;;;;;;;;;;;;;;;;;;5037668;28;6966;-72
2023/01/04 10:19:36;;;;;;;;;;;;;;;;;;5036993;28;7002;-71
2023/01/04 10:24:51;;;;;;;;;;;;;;;;;;5038229;28;7017;-71
2023/01/04 10:33:32;;;;;;;;;;;;;;;;;;5037490;28;6998;-71
2023/01/04 10:35:58;;;;;;;;;;;;;;;;;;5036938;28;7206;-71
2023/01/04 10:38:32;;;;;;;;;;;;;;;;;;5037231;28;7105;-71
2023/01/04 10:41:04;;;;;;;;;;;;;;;;;;5037187;28;7029;-71
2023/01/04 10:49:57;;;;;;;;;;;;;;;;;;5036759;28;6948;-71
2023/01/04 10:52:37;;;;;;;;;;;;;;;;;;5037246;28;7365;-72
2023/01/04 10:55:02;;;;;;;;;;;;;;;;;;5036988;28;7524;-71
2023/01/04 11:03:30;;;;;;;;;;;;;;;;;;5025942;28;7018;-71
2023/01/04 11:06:01;;;;;;;;;;;;;;;;;;5030515;28;9360;-71
2023/01/04 11:08:50;;;;;;;;;;;;;;;;;;5016773;28;7700;-71
2023/01/04 11:11:37;;;;;;;;;;;;;;;;;;5016490;28;7142;-71
2023/01/04 11:14:37;;;;;;;;;;;;;;;;;;5025813;28;7180;-70
2023/01/04 11:17:06;;;;;;;;;;;;;;;;;;5026920;28;7844;-70
2023/01/04 11:22:28;;;;;;;;;;;;;;;;;;5017703;28;7070;-71
2023/01/04 11:25:18;;;;;;;;;;;;;;;;;;5030363;28;7205;-70
2023/01/04 11:31:04;;;;;;;;;;;;;;;;;;5023004;28;7271;-70
2023/01/04 11:33:30;;;;;;;;;;;;;;;;;;5023785;28;7193;-71
2023/01/04 11:36:02;;;;;;;;;;;;;;;;;;5018078;28;7420;-71
2023/01/04 11:38:29;;;;;;;;;;;;;;;;;;5035606;28;7218;-71
2023/01/04 11:40:54;;;;;;;;;;;;;;;;;;5025781;28;7351;-71
2023/01/04 11:43:21;;;;;;;;;;;;;;;;;;5025933;28;7262;-71
2023/01/04 11:46:13;;;;;;;;;;;;;;;;;;5035664;28;7181;-71
2023/01/04 11:48:43;;;;;;;;;;;;;;;;;;5019654;28;6975;-71
2023/01/04 11:51:20;;;;;;;;;;;;;;;;;;5026785;28;7173;-71
2023/01/04 12:02:47;;;;;;;;;;;;;;;;;;5015290;28;6730;-71
2023/01/04 12:11:11;;;;;;;;;;;;;;;;;;5022709;28;7372;-71
2023/01/04 12:20:14;;;;;;;;;;;;;;;;;;5010961;28;6742;-71
2023/01/04 12:22:40;;;;;;;;;;;;;;;;;;5014805;28;7071;-71
2023/01/04 12:28:27;;;;;;;;;;;;;;;;;;5003608;28;6933;-70
2023/01/04 12:30:52;;;;;;;;;;;;;;;;;;5011253;28;7816;-71
2023/01/04 12:33:30;;;;;;;;;;;;;;;;;;5014703;28;7381;-70
2023/01/04 12:39:11;;;;;;;;;;;;;;;;;;5014751;28;6893;-70
2023/01/04 12:41:38;;;;;;;;;;;;;;;;;;5001265;28;7589;-70
2023/01/04 12:44:22;;;;;;;;;;;;;;;;;;5014714;28;7138;-70
2023/01/04 12:49:50;;;;;;;;;;;;;;;;;;5005479;28;7567;-70
2023/01/04 12:55:55;;;;;;;;;;;;;;;;;;4994860;28;6747;-70
2023/01/04 12:58:26;;;;;;;;;;;;;;;;;;5000293;28;7537;-70
2023/01/04 13:01:20;;;;;;;;;;;;;;;;;;5012693;28;6984;-71
2023/01/04 13:03:47;;;;;;;;;;;;;;;;;;4994948;28;7266;-70
2023/01/04 13:06:21;;;;;;;;;;;;;;;;;;4995802;28;7294;-70
2023/01/04 13:09:25;;;;;;;;;;;;;;;;;;5014437;28;7370;-70
2023/01/04 13:12:05;;;;;;;;;;;;;;;;;;4998912;28;7222;-70
2023/01/04 13:18:00;;;;;;;;;;;;;;;;;;5013780;28;6909;-70
2023/01/04 13:20:29;;;;;;;;;;;;;;;;;;5013225;28;7220;-71
2023/01/04 13:23:05;;;;;;;;;;;;;;;;;;5014149;28;7174;-71
2023/01/04 13:25:30;;;;;;;;;;;;;;;;;;5014695;28;7433;-71
2023/01/04 13:30:59;;;;;;;;;;;;;;;;;;5013073;28;7103;-71
2023/01/04 13:33:25;;;;;;;;;;;;;;;;;;5005662;28;7208;-71
2023/01/04 13:36:09;;;;;;;;;;;;;;;;;;5013711;28;7002;-71
2023/01/04 13:41:43;;;;;;;;;;;;;;;;;;5012317;28;6673;-71
2023/01/04 13:47:12;;;;;;;;;;;;;;;;;;4999805;28;6909;-71
2023/01/04 13:49:45;;;;;;;;;;;;;;;;;;5005609;28;7339;-71
2023/01/04 13:52:21;;;;;;;;;;;;;;;;;;5013741;28;7237;-71
2023/01/04 13:54:46;;;;;;;;;;;;;;;;;;5013932;28;7427;-71
2023/01/04 14:00:15;;;;;;;;;;;;;;;;;;5012515;28;6713;-71
2023/01/04 14:05:28;;;;;;;;;;;;;;;;;;5014915;28;6777;-71
2023/01/04 14:07:54;;;;;;;;;;;;;;;;;;4999940;28;8463;-71
2023/01/04 14:10:25;;;;;;;;;;;;;;;;;;5016654;28;6898;-71
2023/01/04 14:12:51;;;;;;;;;;;;;;;;;;4991502;28;8457;-72
2023/01/04 14:15:20;;;;;;;;;;;;;;;;;;5016231;28;7313;-71
2023/01/04 14:17:50;;;;;;;;;;;;;;;;;;5016808;28;7001;-71
2023/01/04 14:20:19;;;;;;;;;;;;;;;;;;5015848;28;7063;-71
2023/01/04 14:22:56;;;;;;;;;;;;;;;;;;5017039;28;7195;-71
2023/01/04 14:25:39;;;;;;;;;;;;;;;;;;5000796;28;7429;-71
2023/01/04 14:28:26;;;;;;;;;;;;;;;;;;4999861;28;7288;-71
2023/01/04 14:30:57;;;;;;;;;;;;;;;;;;5015862;28;7418;-71
2023/01/04 14:33:40;;;;;;;;;;;;;;;;;;5016235;28;6987;-71
2023/01/04 14:36:09;;;;;;;;;;;;;;;;;;5017068;28;7396;-71
2023/01/04 14:39:09;;;;;;;;;;;;;;;;;;4997844;28;7206;-71
2023/01/04 14:42:10;;;;;;;;;;;;;;;;;;5010705;28;7169;-71
2023/01/04 14:44:39;;;;;;;;;;;;;;;;;;5016842;28;7459;-71
2023/01/04 14:53:20;;;;;;;;;;;;;;;;;;5016217;28;6929;-71
2023/01/04 14:55:46;;;;;;;;;;;;;;;;;;5016753;28;6943;-71
2023/01/04 14:58:20;;;;;;;;;;;;;;;;;;5016640;28;7213;-71
2023/01/04 15:00:45;;;;;;;;;;;;;;;;;;5015868;28;7465;-71
2023/01/04 15:03:17;;;;;;;;;;;;;;;;;;5016478;28;7203;-71
2023/01/04 15:05:45;;;;;;;;;;;;;;;;;;5016352;28;7449;-71
2023/01/04 15:08:29;;;;;;;;;;;;;;;;;;5016461;28;7081;-71
2023/01/04 15:10:55;;;;;;;;;;;;;;;;;;5015239;28;8149;-71
2023/01/04 15:13:37;;;;;;;;;;;;;;;;;;5013644;28;6931;-71
2023/01/04 15:16:03;;;;;;;;;;;;;;;;;;5015969;28;7350;-71
2023/01/04 15:24:33;;;;;;;;;;;;;;;;;;5001249;28;6990;-71
2023/01/04 15:27:17;;;;;;;;;;;;;;;;;;4996582;28;8330;-71
2023/01/04 15:29:42;;;;;;;;;;;;;;;;;;4996836;28;6961;-71
2023/01/04 15:38:01;;;;;;;;;;;;;;;;;;5580805;23;7908;-70
2023/01/04 15:40:26;;;;;;;;;;;;;;;;;;5075945;28;6989;-70
2023/01/04 15:42:58;;;;;;;;;;;;;;;;;;5075245;28;7970;-70
2023/01/04 15:45:24;;;;;;;;;;;;;;;;;;5055940;28;7596;-69
2023/01/04 15:47:50;;;;;;;;;;;;;;;;;;5056642;28;6946;-69
2023/01/04 15:53:19;;;;;;;;;;;;;;;;;;5055073;28;7046;-70
2023/01/04 15:55:45;;;;;;;;;;;;;;;;;;5055804;28;7038;-70
2023/01/04 15:58:26;;;;;;;;;;;;;;;;;;5056069;28;6956;-70
2023/01/04 16:00:52;;;;;;;;;;;;;;;;;;5055546;28;7206;-70
2023/01/04 16:03:22;;;;;;;;;;;;;;;;;;5054710;28;7377;-70
2023/01/04 16:05:48;;;;;;;;;;;;;;;;;;5051439;28;7563;-70
2023/01/04 16:08:14;;;;;;;;;;;;;;;;;;5055674;28;7154;-71
2023/01/04 16:10:39;;;;;;;;;;;;;;;;;;5055497;28;6952;-70
2023/01/04 16:13:05;;;;;;;;;;;;;;;;;;5055198;28;7157;-70
2023/01/04 16:15:31;;;;;;;;;;;;;;;;;;5038464;28;9082;-70
2023/01/04 16:17:58;;;;;;;;;;;;;;;;;;5037500;28;8452;-70
2023/01/04 16:20:24;;;;;;;;;;;;;;;;;;5055359;28;7376;-70
2023/01/04 16:22:49;;;;;;;;;;;;;;;;;;5055002;28;6966;-70
2023/01/04 16:25:14;;;;;;;;;;;;;;;;;;5055157;28;7210;-70
2023/01/04 16:27:40;;;;;;;;;;;;;;;;;;5054775;28;7016;-70
2023/01/04 16:32:57;;;;;;;;;;;;;;;;;;5055053;28;6955;-70
2023/01/04 16:35:27;;;;;;;;;;;;;;;;;;5055096;28;6930;-70
2023/01/04 16:41:02;;;;;;;;;;;;;;;;;;5034928;28;7408;-70
2023/01/04 16:43:29;;;;;;;;;;;;;;;;;;5035003;28;7025;-70
2023/01/04 16:46:09;;;;;;;;;;;;;;;;;;5035038;28;7294;-70
2023/01/04 16:48:35;;;;;;;;;;;;;;;;;;5034968;28;7141;-70
2023/01/04 16:51:07;;;;;;;;;;;;;;;;;;5034709;28;6924;-70
2023/01/04 16:53:34;;;;;;;;;;;;;;;;;;5017052;28;8955;-70
2023/01/04 16:59:03;;;;;;;;;;;;;;;;;;5034601;28;6820;-70
2023/01/04 17:01:51;;;;;;;;;;;;;;;;;;5034822;28;7196;-70
2023/01/04 17:04:17;;;;;;;;;;;;;;;;;;5034799;28;7380;-70
2023/01/04 17:06:44;;;;;;;;;;;;;;;;;;5034819;28;7205;-70
2023/01/04 17:12:13;;;;;;;;;;;;;;;;;;5034572;28;6677;-72
2023/01/04 17:14:39;;;;;;;;;;;;;;;;;;5016961;28;8404;-70
2023/01/04 17:17:13;;;;;;;;;;;;;;;;;;5034373;28;7089;-70
2023/01/04 17:19:39;;;;;;;;;;;;;;;;;;5034606;28;7121;-70
2023/01/04 17:22:07;;;;;;;;;;;;;;;;;;5034311;28;8228;-70
2023/01/04 17:24:41;;;;;;;;;;;;;;;;;;5035714;28;7152;-70
2023/01/04 17:27:06;;;;;;;;;;;;;;;;;;5034619;28;7481;-70
2023/01/04 17:29:37;;;;;;;;;;;;;;;;;;5034561;28;7036;-70
2023/01/04 17:32:03;;;;;;;;;;;;;;;;;;5034595;28;7029;-70
2023/01/04 17:44:03;;;;;;;;;;;;;;;;;;5038265;28;6735;-70
2023/01/04 17:49:53;;;;;;;;;;;;;;;;;;5038012;28;7040;-70
2023/01/04 17:52:19;;;;;;;;;;;;;;;;;;5038071;28;7524;-70
2023/01/04 17:54:44;;;;;;;;;;;;;;;;;;5038269;28;7433;-70
2023/01/04 18:00:34;;;;;;;;;;;;;;;;;;5037929;28;6938;-70
2023/01/04 18:03:00;;;;;;;;;;;;;;;;;;5037782;28;7175;-70
2023/01/04 18:08:28;;;;;;;;;;;;;;;;;;5037664;28;6694;-70
2023/01/04 18:11:09;;;;;;;;;;;;;;;;;;5037891;28;7136;-70
2023/01/04 18:13:36;;;;;;;;;;;;;;;;;;5037333;28;7450;-70
2023/01/04 18:16:54;;;;;;;;;;;;;;;;;;5037350;28;7209;-70
2023/01/04 18:19:20;;;;;;;;;;;;;;;;;;5037270;28;6958;-70
2023/01/04 18:21:46;;;;;;;;;;;;;;;;;;5037616;28;7041;-70
2023/01/04 18:24:11;;;;;;;;;;;;;;;;;;5037940;28;7103;-70
2023/01/04 18:26:39;;;;;;;;;;;;;;;;;;5037479;28;7058;-70
2023/01/04 18:29:05;;;;;;;;;;;;;;;;;;5037190;28;6922;-70
2023/01/04 18:31:31;;;;;;;;;;;;;;;;;;5037409;28;7223;-70
2023/01/04 18:33:58;;;;;;;;;;;;;;;;;;5037287;28;7048;-70
2023/01/04 18:36:51;;;;;;;;;;;;;;;;;;5037426;28;7023;-70
2023/01/04 18:42:20;;;;;;;;;;;;;;;;;;5057322;28;6696;-70
2023/01/04 18:47:48;;;;;;;;;;;;;;;;;;5056998;28;6919;-70
2023/01/04 18:50:36;;;;;;;;;;;;;;;;;;5056721;28;6924;-70
2023/01/04 18:53:01;;;;;;;;;;;;;;;;;;5056799;28;6954;-70
2023/01/04 18:58:29;;;;;;;;;;;;;;;;;;5056692;28;6735;-70
2023/01/04 19:04:03;;;;;;;;;;;;;;;;;;5056818;28;6905;-70
2023/01/04 19:06:29;;;;;;;;;;;;;;;;;;5056680;28;7181;-70
2023/01/04 19:08:55;;;;;;;;;;;;;;;;;;5057943;28;7377;-70
2023/01/04 19:14:34;;;;;;;;;;;;;;;;;;5056402;28;6927;-70
2023/01/04 19:17:00;;;;;;;;;;;;;;;;;;5056458;28;7020;-70
2023/01/04 19:19:42;;;;;;;;;;;;;;;;;;5056539;28;7139;-70
2023/01/04 19:22:07;;;;;;;;;;;;;;;;;;5056510;28;7108;-70
2023/01/04 19:30:26;;;;;;;;;;;;;;;;;;5056668;28;7009;-70
2023/01/04 19:32:51;;;;;;;;;;;;;;;;;;5056257;28;6999;-70
2023/01/04 19:35:35;;;;;;;;;;;;;;;;;;5056241;28;7233;-70
2023/01/04 19:38:07;;;;;;;;;;;;;;;;;;5055877;28;8731;-70
2023/01/04 19:40:33;;;;;;;;;;;;;;;;;;5038336;28;8601;-70
2023/01/04 19:42:58;;;;;;;;;;;;;;;;;;5055640;28;7328;-70
2023/01/04 19:45:24;;;;;;;;;;;;;;;;;;5055703;28;7930;-70
2023/01/04 19:47:50;;;;;;;;;;;;;;;;;;5055687;28;6935;-70
2023/01/04 20:02:26;;;;;;;;;;;;;;;;;;5054873;28;6679;-70
2023/01/04 20:04:52;;;;;;;;;;;;;;;;;;5055813;28;7171;-70
2023/01/04 20:07:17;;;;;;;;;;;;;;;;;;5056124;28;6923;-70
2023/01/04 20:09:43;;;;;;;;;;;;;;;;;;5051655;28;6940;-70
2023/01/04 20:12:38;;;;;;;;;;;;;;;;;;5055155;28;7180;-70
2023/01/04 20:15:04;;;;;;;;;;;;;;;;;;5055524;28;8025;-70
2023/01/04 20:17:30;;;;;;;;;;;;;;;;;;5055409;28;7207;-70
2023/01/04 20:20:28;;;;;;;;;;;;;;;;;;5055368;28;7153;-70
2023/01/04 20:22:53;;;;;;;;;;;;;;;;;;5055760;28;7164;-70
2023/01/04 20:25:19;;;;;;;;;;;;;;;;;;5037292;28;8458;-70
2023/01/04 20:30:58;;;;;;;;;;;;;;;;;;5054999;28;6941;-70
2023/01/04 20:33:24;;;;;;;;;;;;;;;;;;5054954;28;7158;-70
2023/01/04 20:45:08;;;;;;;;;;;;;;;;;;5055089;28;7044;-70
2023/01/04 20:47:34;;;;;;;;;;;;;;;;;;5054671;28;7898;-70
2023/01/04 20:56:07;;;;;;;;;;;;;;;;;;5054589;28;6936;-70
2023/01/04 20:58:50;;;;;;;;;;;;;;;;;;5036743;28;7054;-70
2023/01/04 21:01:17;;;;;;;;;;;;;;;;;;5036149;28;7094;-70
2023/01/04 21:06:46;;;;;;;;;;;;;;;;;;5014925;28;6935;-70
2023/01/04 21:09:11;;;;;;;;;;;;;;;;;;5015004;28;7046;-70
2023/01/04 21:11:37;;;;;;;;;;;;;;;;;;5015606;28;6935;-70
2023/01/04 21:14:23;;;;;;;;;;;;;;;;;;5015944;28;7164;-70
2023/01/04 21:16:48;;;;;;;;;;;;;;;;;;5021331;28;7061;-70
2023/01/04 21:19:14;;;;;;;;;;;;;;;;;;5021270;28;6920;-70
2023/01/04 21:21:39;;;;;;;;;;;;;;;;;;5021383;28;7135;-70
2023/01/04 21:24:05;;;;;;;;;;;;;;;;;;5021141;28;7299;-70
2023/01/04 21:29:33;;;;;;;;;;;;;;;;;;5021267;28;6937;-70
2023/01/04 21:35:01;;;;;;;;;;;;;;;;;;5021111;28;6947;-70
2023/01/04 21:40:30;;;;;;;;;;;;;;;;;;5035677;28;6699;-71
2023/01/04 21:42:56;;;;;;;;;;;;;;;;;;5040901;28;7169;-70
2023/01/04 21:45:49;;;;;;;;;;;;;;;;;;5041498;28;7227;-70
2023/01/04 21:48:15;;;;;;;;;;;;;;;;;;5023127;28;8476;-70
2023/01/04 21:50:49;;;;;;;;;;;;;;;;;;5049121;28;7135;-70
2023/01/04 21:53:15;;;;;;;;;;;;;;;;;;5043450;28;7134;-70
2023/01/04 21:55:41;;;;;;;;;;;;;;;;;;5046268;28;7110;-70
2023/01/04 21:58:07;;;;;;;;;;;;;;;;;;5060720;28;7192;-70
2023/01/04 22:00:32;;;;;;;;;;;;;;;;;;5060913;28;7347;-71
2023/01/04 22:02:58;;;;;;;;;;;;;;;;;;5060619;28;7147;-70
2023/01/04 22:05:23;;;;;;;;;;;;;;;;;;5060426;28;7484;-70
2023/01/04 22:07:51;;;;;;;;;;;;;;;;;;5041076;28;7642;-70
2023/01/04 22:10:16;;;;;;;;;;;;;;;;;;5060742;28;6922;-70
2023/01/04 22:12:43;;;;;;;;;;;;;;;;;;5060639;28;7170;-70
2023/01/04 22:15:09;;;;;;;;;;;;;;;;;;5060636;28;7068;-70
2023/01/04 22:17:34;;;;;;;;;;;;;;;;;;5061343;28;7114;-70
2023/01/04 22:22:52;;;;;;;;;;;;;;;;;;5060877;28;6956;-65
2023/01/04 22:25:20;;;;;;;;;;;;;;;;;;5048220;28;7157;-65
2023/01/04 22:31:04;;;;;;;;;;;;;;;;;;5057231;28;6940;-65
2023/01/04 22:33:30;;;;;;;;;;;;;;;;;;5047035;28;7339;-65
2023/01/04 22:36:07;;;;;;;;;;;;;;;;;;5057865;28;6957;-65
2023/01/04 22:38:37;;;;;;;;;;;;;;;;;;5056709;28;7172;-65
2023/01/04 22:41:12;;;;;;;;;;;;;;;;;;5057262;28;7175;-65
2023/01/04 22:43:38;;;;;;;;;;;;;;;;;;5039529;28;7086;-65
2023/01/04 22:46:35;;;;;;;;;;;;;;;;;;5037281;28;7029;-65
2023/01/04 22:49:02;;;;;;;;;;;;;;;;;;5037518;28;7288;-65
2023/01/04 22:54:31;;;;;;;;;;;;;;;;;;5037177;28;6689;-65
2023/01/04 22:56:57;;;;;;;;;;;;;;;;;;5036958;28;7433;-65
2023/01/04 22:59:24;;;;;;;;;;;;;;;;;;5036668;28;7202;-65
2023/01/04 23:01:49;;;;;;;;;;;;;;;;;;5036889;28;6977;-65
2023/01/04 23:04:16;;;;;;;;;;;;;;;;;;5036975;28;7404;-65
2023/01/04 23:07:12;;;;;;;;;;;;;;;;;;5036914;28;7033;-65
2023/01/04 23:09:37;;;;;;;;;;;;;;;;;;5036827;28;7188;-65
2023/01/04 23:12:17;;;;;;;;;;;;;;;;;;5036549;28;6956;-65
2023/01/04 23:14:42;;;;;;;;;;;;;;;;;;5036721;28;7399;-65
2023/01/04 23:20:25;;;;;;;;;;;;;;;;;;5036554;28;6926;-65
2023/01/04 23:22:50;;;;;;;;;;;;;;;;;;5036474;28;7376;-65
2023/01/04 23:28:10;;;;;;;;;;;;;;;;;;5036843;28;6910;-65
2023/01/04 23:30:39;;;;;;;;;;;;;;;;;;5036413;28;8214;-65
2023/01/04 23:33:04;;;;;;;;;;;;;;;;;;5036260;28;6815;-65
2023/01/04 23:35:41;;;;;;;;;;;;;;;;;;5036405;28;7262;-65
2023/01/04 23:38:06;;;;;;;;;;;;;;;;;;5034767;28;7181;-65
2023/01/04 23:40:33;;;;;;;;;;;;;;;;;;5036150;28;7188;-65
2023/01/04 23:49:27;;;;;;;;;;;;;;;;;;5035902;28;6695;-65
2023/01/04 23:51:52;;;;;;;;;;;;;;;;;;5036639;28;7299;-65
2023/01/04 23:54:19;;;;;;;;;;;;;;;;;;5036040;28;7106;-65
2023/01/04 23:56:44;;;;;;;;;;;;;;;;;;5036391;28;7185;-65
2023/01/04 23:59:11;;;;;;;;;;;;;;;;;;5035852;28;7385;-65
